Shields, Kansas
Current Conditions -  °F | °C
As of 3:54 PM on Wednesday 28 Jan 2015 (Local Time) from KGCK Reporting Station
Clear Clear  
Wind Chill: 70°   Ceiling: Unl
Heat Index: 70°   Visibility: 10mi
Dew Point: 25°   Wind: 23mph
Humidity: 18%   Direction: 340°NNW
Pressure: 29.93"   Gusts: 29mph
Location:  38.4812°N, 100.393°W
Report Text: KGCK 282154Z 34020G25KT 10SM CLR 21/M04 A2993 RMK AO2 PK WND 33026/2141 SLP123 T02111039
Loading
Personal Weather Stations






























Interactive Weather Map New forecast layout! Learn more

10-Day Weather Forecast

Advertisements
Track Severe Weather on mobile